createdAt,value
2019-01-17T00:00:05.199Z,4.70
2019-01-17T00:02:52.038Z,4.70
2019-01-17T00:05:46.220Z,4.70
2019-01-17T00:08:43.226Z,4.70
2019-01-17T00:11:22.996Z,4.70
2019-01-17T00:14:01.408Z,4.70
2019-01-17T00:16:48.316Z,4.70
2019-01-17T00:19:39.364Z,4.70
2019-01-17T00:22:30.734Z,4.80
2019-01-17T00:25:17.496Z,4.80
2019-01-17T00:28:06.526Z,4.80
2019-01-17T00:30:54.697Z,4.80
2019-01-17T00:33:34.688Z,4.80
2019-01-17T00:36:25.610Z,4.80
2019-01-17T00:39:12.414Z,4.80
2019-01-17T00:41:49.968Z,4.80
2019-01-17T00:44:46.942Z,4.80
2019-01-17T00:47:26.796Z,4.80
2019-01-17T00:50:15.019Z,4.80
2019-01-17T00:53:03.549Z,4.80
2019-01-17T00:55:52.637Z,4.80
2019-01-17T00:58:45.560Z,4.90
2019-01-17T01:01:29.155Z,4.80
2019-01-17T01:04:13.320Z,4.90
2019-01-17T01:06:52.184Z,4.90
2019-01-17T01:09:47.331Z,4.90
2019-01-17T01:12:35.445Z,4.90
2019-01-17T01:15:38.253Z,4.90
2019-01-17T01:18:18.110Z,5.00
2019-01-17T01:21:00.653Z,5.00
2019-01-17T01:23:46.179Z,5.00
2019-01-17T01:26:36.872Z,5.00
2019-01-17T01:29:23.368Z,5.10
2019-01-17T01:32:07.550Z,5.00
2019-01-17T01:34:52.108Z,5.00
2019-01-17T01:37:38.670Z,5.00
2019-01-17T01:40:26.334Z,5.00
2019-01-17T01:43:11.418Z,5.00
2019-01-17T01:45:53.583Z,5.00
2019-01-17T01:48:46.099Z,5.00
2019-01-17T01:51:38.205Z,5.00
2019-01-17T01:54:07.530Z,4.90
2019-01-17T01:56:36.616Z,5.00
2019-01-17T01:59:05.741Z,5.00
2019-01-17T02:01:34.832Z,5.10
2019-01-17T02:04:04.070Z,5.10
2019-01-17T02:06:33.317Z,5.20
2019-01-17T02:09:02.519Z,5.20
2019-01-17T02:11:31.672Z,5.00
2019-01-17T02:14:00.871Z,5.00
2019-01-17T02:16:30.017Z,5.10
2019-01-17T02:19:00.409Z,5.10
2019-01-17T02:21:29.559Z,5.20
2019-01-17T02:23:58.671Z,5.20
2019-01-17T02:26:27.847Z,5.20
2019-01-17T02:28:57.001Z,5.20
2019-01-17T02:31:26.155Z,5.20
2019-01-17T02:33:55.260Z,5.20
2019-01-17T02:36:25.133Z,5.10
2019-01-17T02:38:54.261Z,5.20
2019-01-17T02:41:24.955Z,5.00
2019-01-17T02:43:54.010Z,5.00
2019-01-17T02:46:23.423Z,4.90
2019-01-17T02:48:52.529Z,4.90
2019-01-17T02:51:22.706Z,4.90
2019-01-17T02:53:51.812Z,4.90
2019-01-17T02:56:20.954Z,4.80
2019-01-17T02:58:50.061Z,4.80
2019-01-17T03:01:19.266Z,4.80
2019-01-17T03:03:48.440Z,4.70
2019-01-17T03:06:17.538Z,4.70
2019-01-17T03:08:46.697Z,4.80
2019-01-17T03:11:17.372Z,4.80
2019-01-17T03:13:46.566Z,4.70
2019-01-17T03:16:15.674Z,4.60
2019-01-17T03:18:44.812Z,4.50
2019-01-17T03:21:14.246Z,4.40
2019-01-17T03:23:44.574Z,4.40
2019-01-17T03:26:13.713Z,4.40
2019-01-17T03:28:42.813Z,4.40
2019-01-17T03:31:13.992Z,4.40
2019-01-17T03:33:43.124Z,4.40
2019-01-17T03:36:12.799Z,4.30
2019-01-17T03:38:42.617Z,4.20
2019-01-17T03:41:12.090Z,4.10
2019-01-17T03:43:41.569Z,3.90
2019-01-17T03:46:10.921Z,3.90
2019-01-17T03:48:40.062Z,3.80
2019-01-17T03:51:11.211Z,3.70
2019-01-17T03:53:40.369Z,3.50
2019-01-17T03:56:11.609Z,3.50
2019-01-17T03:58:42.737Z,3.40
2019-01-17T04:01:12.606Z,3.40
2019-01-17T04:03:41.738Z,3.40
2019-01-17T04:06:12.320Z,3.30
2019-01-17T04:08:41.392Z,3.20
2019-01-17T04:11:11.273Z,3.30
2019-01-17T04:13:40.466Z,3.20
2019-01-17T04:16:11.727Z,3.10
2019-01-17T04:18:40.838Z,3.10
2019-01-17T04:21:10.844Z,3.20
2019-01-17T04:23:39.940Z,3.20
2019-01-17T04:26:09.764Z,3.20
2019-01-17T04:28:38.808Z,3.40
2019-01-17T04:31:07.964Z,3.40
2019-01-17T04:33:37.095Z,3.40
2019-01-17T04:36:06.230Z,3.40
2019-01-17T04:38:35.345Z,3.40
2019-01-17T04:41:04.499Z,3.50
2019-01-17T04:43:33.627Z,3.40
2019-01-17T04:46:03.010Z,3.50
2019-01-17T04:48:32.050Z,3.40
2019-01-17T04:51:01.160Z,3.40
2019-01-17T04:53:30.271Z,3.50
2019-01-17T04:55:59.409Z,3.50
2019-01-17T04:58:28.512Z,3.50
2019-01-17T05:00:57.697Z,3.70
2019-01-17T05:03:26.822Z,3.70
2019-01-17T05:05:57.038Z,3.80
2019-01-17T05:08:26.552Z,3.70
2019-01-17T05:10:55.657Z,3.80
2019-01-17T05:13:25.279Z,3.80
2019-01-17T05:15:54.407Z,3.70
2019-01-17T05:18:23.507Z,3.70
2019-01-17T05:20:52.620Z,3.70
2019-01-17T05:23:29.807Z,3.80
2019-01-17T05:25:56.137Z,3.80
2019-01-17T05:28:28.041Z,3.70
2019-01-17T05:30:59.218Z,3.70
2019-01-17T05:33:28.346Z,3.60
2019-01-17T05:35:57.474Z,3.70
2019-01-17T05:38:26.912Z,3.70
2019-01-17T05:40:56.656Z,3.80
2019-01-17T05:43:26.031Z,3.90
2019-01-17T05:45:55.173Z,3.90
2019-01-17T05:48:24.702Z,3.90
2019-01-17T05:50:53.997Z,3.90
2019-01-17T05:53:23.174Z,4.00
2019-01-17T05:55:52.288Z,4.00
2019-01-17T05:58:21.406Z,4.00
2019-01-17T06:00:50.620Z,4.10
2019-01-17T06:03:19.761Z,4.10
2019-01-17T06:05:48.895Z,4.10
2019-01-17T06:08:18.107Z,4.10
2019-01-17T06:10:47.329Z,4.10
2019-01-17T06:13:16.463Z,4.20
2019-01-17T06:15:45.892Z,4.20
2019-01-17T06:18:15.001Z,4.20
2019-01-17T06:20:45.647Z,4.30
2019-01-17T06:23:15.091Z,4.30
2019-01-17T06:25:44.217Z,4.30
2019-01-17T06:28:13.613Z,4.30
2019-01-17T06:30:42.758Z,4.30
2019-01-17T06:33:12.178Z,4.40
2019-01-17T06:35:41.363Z,4.40
2019-01-17T06:38:12.824Z,4.40
2019-01-17T06:40:41.978Z,4.40
2019-01-17T06:43:14.656Z,4.40
2019-01-17T06:45:44.574Z,4.40
2019-01-17T06:48:13.680Z,4.50
2019-01-17T06:50:42.812Z,4.50
2019-01-17T06:53:11.941Z,4.50
2019-01-17T06:55:41.366Z,4.50
2019-01-17T06:58:11.610Z,4.50
2019-01-17T07:00:40.728Z,4.60
2019-01-17T07:03:11.821Z,4.60
2019-01-17T07:05:40.937Z,4.70
2019-01-17T07:08:10.051Z,4.70
2019-01-17T07:10:39.143Z,4.60
2019-01-17T07:13:08.248Z,4.60
2019-01-17T07:15:37.383Z,4.60
2019-01-17T07:18:06.447Z,4.40
2019-01-17T07:20:35.578Z,4.20
2019-01-17T07:23:04.695Z,3.70
2019-01-17T07:25:33.807Z,3.60
2019-01-17T07:28:02.959Z,3.50
2019-01-17T07:30:32.139Z,3.50
2019-01-17T07:33:01.183Z,3.40
2019-01-17T07:35:30.412Z,3.30
2019-01-17T07:37:59.826Z,3.30
2019-01-17T07:40:28.914Z,3.30
2019-01-17T07:42:58.089Z,3.20
2019-01-17T07:45:29.059Z,3.20
2019-01-17T07:47:58.221Z,3.20
2019-01-17T07:50:27.312Z,3.20
2019-01-17T07:52:56.612Z,3.20
2019-01-17T07:55:25.970Z,3.10
2019-01-17T07:57:55.088Z,3.10
2019-01-17T08:00:26.795Z,3.00
2019-01-17T08:02:55.986Z,3.10
2019-01-17T08:05:27.802Z,3.10
2019-01-17T08:07:56.931Z,3.10
2019-01-17T08:10:26.080Z,3.10
2019-01-17T08:12:55.213Z,3.10
2019-01-17T08:15:25.563Z,3.20
2019-01-17T08:17:54.666Z,3.20
2019-01-17T08:20:24.620Z,3.20
2019-01-17T08:22:54.192Z,3.10
2019-01-17T08:25:23.372Z,3.10
2019-01-17T08:27:52.673Z,3.10
2019-01-17T08:30:27.783Z,3.20
2019-01-17T08:32:56.876Z,3.20
2019-01-17T08:35:27.350Z,3.20
2019-01-17T08:37:56.503Z,3.20
2019-01-17T08:40:30.811Z,3.20
2019-01-17T08:43:00.020Z,3.30
2019-01-17T08:45:29.191Z,3.30
2019-01-17T08:47:58.310Z,3.40
2019-01-17T08:50:28.099Z,3.40
2019-01-17T08:52:57.261Z,3.40
2019-01-17T08:55:26.668Z,3.40
2019-01-17T08:57:57.519Z,3.50
2019-01-17T09:00:27.009Z,3.50
2019-01-17T09:02:56.158Z,3.60
2019-01-17T09:05:27.399Z,3.80
2019-01-17T09:07:56.537Z,3.80
2019-01-17T09:10:27.808Z,3.80
2019-01-17T09:12:57.063Z,3.80
2019-01-17T09:15:36.015Z,3.90
2019-01-17T09:18:05.362Z,3.90
2019-01-17T09:20:34.494Z,3.90
2019-01-17T09:23:03.616Z,4.00
2019-01-17T09:25:32.732Z,4.10
2019-01-17T09:28:01.914Z,4.20
2019-01-17T09:30:31.202Z,4.50
2019-01-17T09:33:00.295Z,4.00
2019-01-17T09:35:29.449Z,4.00
2019-01-17T09:37:59.618Z,4.10
2019-01-17T09:40:31.026Z,4.20
2019-01-17T09:43:00.129Z,4.20
2019-01-17T09:45:29.264Z,4.20
2019-01-17T09:47:58.402Z,4.20
2019-01-17T09:50:28.149Z,4.20
2019-01-17T09:52:57.273Z,4.20
2019-01-17T09:55:27.923Z,4.20
2019-01-17T09:57:57.075Z,4.30
2019-01-17T10:00:28.429Z,4.20
2019-01-17T10:02:57.557Z,4.20
2019-01-17T10:05:27.755Z,4.20
2019-01-17T10:07:57.397Z,4.10
2019-01-17T10:10:28.092Z,4.20
2019-01-17T10:12:57.250Z,4.30
2019-01-17T10:15:53.540Z,4.40
2019-01-17T10:19:02.590Z,4.40
2019-01-17T10:22:19.063Z,4.50
2019-01-17T10:25:03.827Z,4.10
2019-01-17T10:27:48.492Z,3.70
2019-01-17T10:31:11.951Z,3.60
2019-01-17T10:34:02.264Z,3.70
2019-01-17T10:36:55.058Z,3.70
2019-01-17T10:39:41.300Z,4.00
2019-01-17T10:42:36.896Z,4.10
2019-01-17T10:45:56.705Z,4.00
2019-01-17T10:49:14.548Z,3.90
2019-01-17T10:52:26.551Z,3.90
2019-01-17T10:55:38.754Z,4.00
2019-01-17T10:58:37.551Z,4.20
2019-01-17T11:01:44.899Z,4.50
2019-01-17T11:04:44.938Z,4.60
2019-01-17T11:07:43.154Z,4.70
2019-01-17T11:10:31.427Z,4.70
2019-01-17T11:13:47.679Z,4.80
2019-01-17T11:16:55.131Z,4.90
2019-01-17T11:19:40.058Z,4.80
2019-01-17T11:22:38.307Z,4.70
2019-01-17T11:25:29.473Z,4.70
2019-01-17T11:28:36.968Z,4.80
2019-01-17T11:31:42.927Z,4.80
2019-01-17T11:34:30.239Z,4.80
2019-01-17T11:37:37.212Z,4.60
2019-01-17T11:40:44.621Z,4.60
2019-01-17T11:44:05.169Z,4.60
2019-01-17T11:47:06.070Z,4.50
2019-01-17T11:50:19.234Z,4.50
2019-01-17T11:53:13.386Z,4.50
2019-01-17T11:56:19.006Z,4.50
2019-01-17T11:59:33.664Z,4.50
2019-01-17T12:02:30.769Z,4.60
2019-01-17T12:05:00.264Z,4.60
2019-01-17T12:07:30.408Z,4.60
2019-01-17T12:09:59.536Z,4.60
2019-01-17T12:12:28.842Z,4.60
2019-01-17T12:14:59.483Z,4.70
2019-01-17T12:17:28.597Z,4.70
2019-01-17T12:19:57.790Z,4.80
2019-01-17T12:22:27.246Z,4.90
2019-01-17T12:24:56.327Z,4.90
2019-01-17T12:27:25.815Z,4.90
2019-01-17T12:29:55.218Z,4.80
2019-01-17T12:32:24.646Z,4.70
2019-01-17T12:34:55.327Z,4.80
2019-01-17T12:37:26.991Z,4.70
2019-01-17T12:39:56.851Z,4.70
2019-01-17T12:42:26.247Z,4.70
2019-01-17T12:44:55.372Z,4.70
2019-01-17T12:47:26.822Z,4.70
2019-01-17T12:49:56.247Z,4.60
2019-01-17T12:52:27.377Z,4.50
2019-01-17T12:54:56.497Z,4.50
2019-01-17T12:57:26.363Z,4.40
2019-01-17T12:59:55.493Z,4.40
2019-01-17T13:02:26.699Z,4.40
2019-01-17T13:04:55.797Z,4.40
2019-01-17T13:07:26.390Z,4.20
2019-01-17T13:09:56.030Z,3.80
2019-01-17T13:12:28.167Z,3.60
2019-01-17T13:14:57.296Z,3.40
2019-01-17T13:17:27.678Z,3.50
2019-01-17T13:19:56.784Z,3.60
2019-01-17T13:22:26.166Z,3.60
2019-01-17T13:24:55.814Z,3.60
2019-01-17T13:27:26.420Z,3.50
2019-01-17T13:29:55.533Z,3.60
2019-01-17T13:32:25.384Z,3.80
2019-01-17T13:34:54.426Z,3.90
2019-01-17T13:37:25.310Z,3.90
2019-01-17T13:39:54.426Z,3.60
2019-01-17T13:42:26.397Z,3.40
2019-01-17T13:44:55.524Z,3.20
2019-01-17T13:47:29.500Z,3.30
2019-01-17T13:49:58.654Z,3.20
2019-01-17T13:52:27.783Z,3.20
2019-01-17T13:54:57.165Z,3.10
2019-01-17T13:57:28.916Z,3.10
2019-01-17T13:59:58.011Z,3.10
2019-01-17T14:02:27.820Z,3.20
2019-01-17T14:04:57.005Z,3.20
2019-01-17T14:07:26.121Z,3.10
2019-01-17T14:09:55.163Z,3.10
2019-01-17T14:12:25.913Z,3.10
2019-01-17T14:14:55.468Z,3.20
2019-01-17T14:17:26.324Z,3.30
2019-01-17T14:19:55.818Z,3.30
2019-01-17T14:22:25.230Z,3.30
2019-01-17T14:24:54.328Z,3.30
2019-01-17T14:27:23.458Z,2.90
2019-01-17T14:29:52.576Z,3.10
2019-01-17T14:32:23.498Z,3.10
2019-01-17T14:34:52.626Z,3.20
2019-01-17T14:37:23.866Z,3.10
2019-01-17T14:39:52.998Z,3.40
2019-01-17T14:42:22.142Z,3.60
2019-01-17T14:44:51.436Z,3.70
2019-01-17T14:47:22.681Z,3.80
2019-01-17T14:49:51.799Z,3.80
2019-01-17T14:52:22.455Z,3.80
2019-01-17T14:54:51.530Z,3.80
2019-01-17T14:57:21.001Z,3.80
2019-01-17T14:59:50.128Z,3.80
2019-01-17T15:02:19.261Z,3.70
2019-01-17T15:04:48.369Z,3.70
2019-01-17T15:07:17.647Z,3.50
2019-01-17T15:09:46.771Z,3.20
2019-01-17T15:12:15.923Z,3.10
2019-01-17T15:14:45.044Z,3.00
2019-01-17T15:17:14.153Z,3.10
2019-01-17T15:19:43.283Z,3.20
2019-01-17T15:22:13.101Z,3.20
2019-01-17T15:24:42.240Z,3.20
2019-01-17T15:27:13.626Z,3.20
2019-01-17T15:29:42.983Z,3.20
2019-01-17T15:32:14.610Z,3.30
2019-01-17T15:34:43.922Z,3.30
2019-01-17T15:37:13.032Z,3.30
2019-01-17T15:39:42.394Z,3.30
2019-01-17T15:42:11.849Z,3.30
2019-01-17T15:44:40.956Z,3.30
2019-01-17T15:47:13.255Z,3.30
2019-01-17T15:49:41.300Z,3.10
2019-01-17T15:52:10.660Z,2.90
2019-01-17T15:54:40.956Z,2.90
2019-01-17T15:57:10.980Z,2.90
2019-01-17T15:59:40.104Z,2.90
2019-01-17T16:02:09.998Z,2.90
2019-01-17T16:04:39.076Z,2.80
2019-01-17T16:07:08.236Z,2.70
2019-01-17T16:09:37.394Z,2.70
2019-01-17T16:12:06.675Z,2.80
2019-01-17T16:14:35.647Z,2.70
2019-01-17T16:17:07.805Z,2.70
2019-01-17T16:19:39.543Z,2.70
2019-01-17T16:22:10.989Z,2.70
2019-01-17T16:24:40.190Z,2.70
2019-01-17T16:27:11.333Z,2.60
2019-01-17T16:29:40.499Z,2.50
2019-01-17T16:32:15.772Z,2.60
2019-01-17T16:34:45.036Z,2.60
2019-01-17T16:37:16.469Z,2.60
2019-01-17T16:39:46.323Z,2.60
2019-01-17T16:42:15.445Z,2.60
2019-01-17T16:44:44.580Z,2.80
2019-01-17T16:47:13.729Z,3.30
2019-01-17T16:49:43.345Z,3.00
2019-01-17T16:52:18.718Z,3.20
2019-01-17T16:54:48.980Z,3.50
2019-01-17T16:57:18.112Z,3.40
2019-01-17T16:59:48.200Z,3.20
2019-01-17T17:02:17.412Z,3.10
2019-01-17T17:04:46.814Z,3.10
2019-01-17T17:07:15.932Z,3.40
2019-01-17T17:09:44.979Z,3.40
2019-01-17T17:12:14.412Z,3.30
2019-01-17T17:14:45.220Z,3.20
2019-01-17T17:17:14.421Z,3.10
2019-01-17T17:19:43.578Z,3.00
2019-01-17T17:22:12.844Z,3.00
2019-01-17T17:24:41.984Z,3.00
2019-01-17T17:27:13.692Z,3.00
2019-01-17T17:29:42.891Z,3.00
2019-01-17T17:32:13.372Z,3.00
2019-01-17T17:34:42.466Z,2.90
2019-01-17T17:37:13.194Z,2.90
2019-01-17T17:39:42.377Z,2.80
2019-01-17T17:42:13.149Z,2.70
2019-01-17T17:44:42.890Z,2.90
2019-01-17T17:47:16.351Z,2.80
2019-01-17T17:49:45.679Z,2.70
2019-01-17T17:52:16.597Z,2.90
2019-01-17T17:54:47.760Z,3.00
2019-01-17T17:57:16.934Z,3.20
2019-01-17T17:59:46.029Z,3.30
2019-01-17T18:02:25.258Z,3.30
2019-01-17T18:04:56.043Z,3.30
2019-01-17T18:07:30.382Z,3.50
2019-01-17T18:10:02.434Z,3.40
2019-01-17T18:12:31.802Z,3.30
2019-01-17T18:15:00.927Z,3.10
2019-01-17T18:17:30.287Z,3.10
2019-01-17T18:20:00.871Z,3.10
2019-01-17T18:22:32.100Z,3.10
2019-01-17T18:25:01.758Z,3.20
2019-01-17T18:27:31.156Z,3.40
2019-01-17T18:30:00.383Z,3.50
2019-01-17T18:32:31.835Z,3.50
2019-01-17T18:35:02.498Z,3.40
2019-01-17T18:37:31.664Z,3.30
2019-01-17T18:40:00.808Z,3.20
2019-01-17T18:42:29.990Z,3.20
2019-01-17T18:44:59.374Z,3.30
2019-01-17T18:47:28.531Z,3.30
2019-01-17T18:49:57.719Z,3.30
2019-01-17T18:52:28.695Z,3.20
2019-01-17T18:54:57.807Z,3.00
2019-01-17T18:57:27.361Z,3.00
2019-01-17T18:59:56.825Z,3.00
2019-01-17T19:02:25.971Z,3.20
2019-01-17T19:04:55.117Z,3.20
2019-01-17T19:07:25.002Z,3.10
2019-01-17T19:09:54.442Z,2.80
2019-01-17T19:12:26.293Z,2.70
2019-01-17T19:14:55.397Z,2.70
2019-01-17T19:17:26.859Z,2.80
2019-01-17T19:19:58.401Z,2.90
2019-01-17T19:22:27.630Z,2.90
2019-01-17T19:24:56.763Z,2.80
2019-01-17T19:27:28.295Z,2.70
2019-01-17T19:29:57.466Z,2.70
2019-01-17T19:32:27.007Z,2.60
2019-01-17T19:34:58.390Z,2.70
2019-01-17T19:37:29.698Z,2.70
2019-01-17T19:39:58.808Z,2.90
2019-01-17T19:42:27.903Z,3.20
2019-01-17T19:44:57.108Z,3.30
2019-01-17T19:47:26.232Z,3.20
2019-01-17T19:49:55.388Z,3.20
2019-01-17T19:52:26.246Z,3.20
2019-01-17T19:54:55.412Z,3.20
2019-01-17T19:57:26.200Z,3.00
2019-01-17T19:59:55.368Z,2.80
2019-01-17T20:02:25.956Z,2.70
2019-01-17T20:04:55.079Z,2.70
2019-01-17T20:07:24.547Z,2.80
2019-01-17T20:09:53.635Z,2.80
2019-01-17T20:12:25.485Z,2.80
2019-01-17T20:14:54.630Z,2.80
2019-01-17T20:17:26.321Z,2.80
2019-01-17T20:19:55.424Z,2.80
2019-01-17T20:22:24.769Z,2.80
2019-01-17T20:24:53.909Z,2.80
2019-01-17T20:27:23.017Z,2.70
2019-01-17T20:29:54.691Z,2.60
2019-01-17T20:32:26.820Z,2.60
2019-01-17T20:34:56.052Z,2.60
2019-01-17T20:37:25.188Z,2.60
2019-01-17T20:39:54.347Z,2.60
2019-01-17T20:42:23.473Z,2.70
2019-01-17T20:44:54.041Z,2.80
2019-01-17T20:47:25.044Z,2.80
2019-01-17T20:49:54.176Z,2.80
2019-01-17T20:52:25.496Z,2.70
2019-01-17T20:54:54.728Z,2.60
2019-01-17T20:57:25.838Z,2.60
2019-01-17T20:59:55.332Z,2.70
2019-01-17T21:02:24.472Z,2.60
2019-01-17T21:04:54.042Z,2.60
2019-01-17T21:07:24.025Z,2.60
2019-01-17T21:09:53.450Z,2.60
2019-01-17T21:12:23.317Z,2.60
2019-01-17T21:14:52.522Z,2.60
2019-01-17T21:17:22.809Z,2.70
2019-01-17T21:19:54.373Z,2.70
2019-01-17T21:22:25.707Z,3.00
2019-01-17T21:24:54.870Z,3.10
2019-01-17T21:27:25.747Z,3.20
2019-01-17T21:29:54.851Z,3.10
2019-01-17T21:32:24.331Z,3.10
2019-01-17T21:34:53.463Z,3.10
2019-01-17T21:37:23.381Z,3.20
2019-01-17T21:39:52.519Z,3.20
2019-01-17T21:42:21.689Z,3.30
2019-01-17T21:44:50.880Z,3.40
2019-01-17T21:47:21.573Z,3.40
2019-01-17T21:49:50.800Z,3.30
2019-01-17T21:52:24.224Z,3.40
2019-01-17T21:54:50.828Z,3.40
2019-01-17T21:57:19.952Z,3.50
2019-01-17T21:59:49.666Z,3.50
2019-01-17T22:02:18.763Z,3.70
2019-01-17T22:04:47.968Z,3.40
2019-01-17T22:07:17.094Z,3.20
2019-01-17T22:09:46.516Z,3.70
2019-01-17T22:12:15.614Z,3.80
2019-01-17T22:14:44.748Z,4.00
2019-01-17T22:17:13.745Z,3.80
2019-01-17T22:19:42.910Z,3.40
2019-01-17T22:22:12.264Z,3.20
2019-01-17T22:24:41.366Z,3.00
2019-01-17T22:27:12.327Z,2.90
2019-01-17T22:29:41.458Z,2.70
2019-01-17T22:32:11.122Z,2.70
2019-01-17T22:34:40.226Z,2.70
2019-01-17T22:37:11.653Z,2.90
2019-01-17T22:39:41.069Z,3.10
2019-01-17T22:42:10.374Z,3.00
2019-01-17T22:44:39.567Z,2.80
2019-01-17T22:47:08.653Z,2.60
2019-01-17T22:49:37.745Z,2.50
2019-01-17T22:52:06.867Z,2.50
2019-01-17T22:54:35.972Z,2.40
2019-01-17T22:57:06.637Z,2.40
2019-01-17T22:59:35.697Z,2.30
2019-01-17T23:02:05.353Z,2.20
2019-01-17T23:04:34.449Z,2.10
2019-01-17T23:07:03.695Z,1.90
2019-01-17T23:09:32.802Z,1.80
2019-01-17T23:12:01.971Z,1.70
2019-01-17T23:14:31.180Z,1.60
2019-01-17T23:17:00.568Z,1.60
2019-01-17T23:19:29.731Z,1.50
2019-01-17T23:21:58.904Z,1.40
2019-01-17T23:24:27.994Z,1.30
2019-01-17T23:26:57.338Z,1.30
2019-01-17T23:29:26.749Z,1.20
2019-01-17T23:31:55.824Z,1.20
2019-01-17T23:34:27.710Z,1.20
2019-01-17T23:36:56.946Z,1.20
2019-01-17T23:39:26.108Z,1.10
2019-01-17T23:41:55.445Z,1.10
2019-01-17T23:44:25.196Z,1.10
2019-01-17T23:46:54.314Z,1.00
2019-01-17T23:49:26.079Z,0.90
2019-01-17T23:51:55.264Z,0.80
2019-01-17T23:54:24.400Z,0.80
2019-01-17T23:56:53.530Z,0.80
2019-01-17T23:59:22.936Z,0.70
